createdAt,value
2023-04-04T00:00:01.463Z,81.10
2023-04-04T00:01:05.815Z,81.19
2023-04-04T00:02:09.802Z,81.28
2023-04-04T00:03:14.105Z,81.30
2023-04-04T00:04:18.186Z,81.35
2023-04-04T00:05:22.331Z,81.46
2023-04-04T00:06:26.385Z,81.39
2023-04-04T00:07:30.636Z,81.38
2023-04-04T00:08:34.736Z,81.38
2023-04-04T00:09:38.920Z,81.45
2023-04-04T00:10:43.381Z,81.45
2023-04-04T00:11:47.247Z,81.47
2023-04-04T00:12:51.487Z,81.46
2023-04-04T00:13:55.817Z,81.44
2023-04-04T00:14:59.840Z,81.39
2023-04-04T00:16:04.105Z,81.34
2023-04-04T00:17:08.178Z,81.29
2023-04-04T00:18:12.442Z,81.20
2023-04-04T00:19:16.572Z,81.13
2023-04-04T00:20:20.819Z,81.05
2023-04-04T00:21:24.910Z,80.97
2023-04-04T00:22:29.099Z,80.87
2023-04-04T00:23:33.252Z,80.78
2023-04-04T00:24:37.462Z,80.70
2023-04-04T00:25:41.697Z,80.68
2023-04-04T00:26:45.917Z,80.52
2023-04-04T00:27:50.063Z,80.36
2023-04-04T00:28:54.266Z,80.36
2023-04-04T00:29:58.429Z,80.19
2023-04-04T00:31:02.541Z,80.15
2023-04-04T00:32:06.859Z,80.07
2023-04-04T00:33:10.923Z,79.97
2023-04-04T00:34:14.958Z,79.97
2023-04-04T00:35:19.161Z,79.95
2023-04-04T00:36:23.314Z,79.96
2023-04-04T00:37:27.500Z,79.92
2023-04-04T00:38:31.644Z,79.90
2023-04-04T00:39:35.766Z,79.92
2023-04-04T00:40:40.224Z,79.90
2023-04-04T00:41:44.214Z,79.85
2023-04-04T00:42:48.360Z,79.93
2023-04-04T00:43:52.414Z,79.95
2023-04-04T00:44:56.644Z,79.93
2023-04-04T00:46:00.885Z,80.02
2023-04-04T00:47:05.047Z,80.08
2023-04-04T00:48:09.181Z,80.11
2023-04-04T00:49:13.391Z,80.14
2023-04-04T00:50:17.472Z,80.16
2023-04-04T00:51:21.816Z,80.19
2023-04-04T00:52:25.831Z,80.21
2023-04-04T00:53:29.868Z,80.25
2023-04-04T00:54:34.050Z,80.27
2023-04-04T00:55:38.289Z,80.26
2023-04-04T00:56:42.472Z,80.23
2023-04-04T00:57:46.601Z,80.18
2023-04-04T00:58:50.902Z,80.14
2023-04-04T00:59:55.028Z,80.06
2023-04-04T01:00:59.114Z,80.04
2023-04-04T01:02:03.329Z,80.03
2023-04-04T01:03:07.666Z,80.02
2023-04-04T01:04:11.504Z,80.04
2023-04-04T01:05:15.703Z,80.08
2023-04-04T01:06:19.971Z,80.17
2023-04-04T01:07:24.211Z,80.25
2023-04-04T01:08:28.194Z,80.33
2023-04-04T01:09:32.405Z,80.41
2023-04-04T01:10:36.497Z,80.49
2023-04-04T01:11:40.643Z,80.58
2023-04-04T01:12:44.790Z,80.63
2023-04-04T01:13:48.951Z,80.68
2023-04-04T01:14:53.126Z,80.70
2023-04-04T01:15:57.290Z,80.72
2023-04-04T01:17:01.546Z,80.69
2023-04-04T01:18:05.787Z,80.67
2023-04-04T01:19:09.974Z,80.67
2023-04-04T01:20:14.224Z,80.64
2023-04-04T01:21:18.383Z,80.61
2023-04-04T01:22:22.607Z,80.58
2023-04-04T01:23:26.650Z,80.65
2023-04-04T01:24:30.862Z,80.53
2023-04-04T01:25:35.102Z,80.52
2023-04-04T01:26:39.305Z,80.49
2023-04-04T01:27:43.394Z,80.48
2023-04-04T01:28:50.478Z,80.44
2023-04-04T01:29:53.754Z,80.35
2023-04-04T01:30:57.829Z,80.38
2023-04-04T01:32:02.103Z,80.42
2023-04-04T01:33:06.322Z,80.47
2023-04-04T01:34:10.606Z,80.49
2023-04-04T01:35:14.802Z,80.52
2023-04-04T01:36:18.914Z,80.52
2023-04-04T01:37:23.975Z,80.53
2023-04-04T01:38:27.683Z,80.55
2023-04-04T01:39:32.004Z,80.60
2023-04-04T01:40:36.141Z,80.61
2023-04-04T01:41:40.174Z,80.69
2023-04-04T01:42:44.351Z,80.76
2023-04-04T01:43:48.604Z,80.80
2023-04-04T01:44:52.792Z,80.86
2023-04-04T01:45:57.045Z,80.95
2023-04-04T01:47:01.050Z,81.03
2023-04-04T01:48:05.474Z,81.11
2023-04-04T01:49:11.137Z,81.18
2023-04-04T01:50:13.765Z,81.23
2023-04-04T01:51:17.934Z,81.25
2023-04-04T01:52:22.048Z,81.24
2023-04-04T01:53:26.343Z,81.16
2023-04-04T01:54:30.389Z,81.21
2023-04-04T01:55:34.704Z,81.20
2023-04-04T01:56:38.706Z,81.18
2023-04-04T01:57:42.914Z,81.15
2023-04-04T01:58:47.249Z,81.14
2023-04-04T01:59:51.354Z,81.12
2023-04-04T02:00:55.510Z,81.06
2023-04-04T02:01:59.570Z,81.03
2023-04-04T02:03:03.891Z,81.05
2023-04-04T02:04:07.951Z,81.01
2023-04-04T02:05:12.066Z,81.00
2023-04-04T02:06:16.269Z,81.01
2023-04-04T02:07:20.270Z,81.04
2023-04-04T02:08:24.528Z,81.03
2023-04-04T02:09:28.747Z,81.04
2023-04-04T02:10:32.835Z,81.02
2023-04-04T02:11:37.052Z,81.03
2023-04-04T02:12:41.261Z,81.04
2023-04-04T02:13:45.410Z,81.04
2023-04-04T02:14:49.449Z,81.05
2023-04-04T02:15:53.875Z,81.05
2023-04-04T02:16:57.934Z,81.09
2023-04-04T02:18:02.338Z,81.05
2023-04-04T02:19:06.430Z,81.05
2023-04-04T02:20:10.707Z,81.08
2023-04-04T02:21:14.734Z,81.06
2023-04-04T02:22:18.938Z,81.13
2023-04-04T02:23:23.117Z,81.15
2023-04-04T02:24:27.183Z,81.19
2023-04-04T02:25:31.402Z,81.23
2023-04-04T02:26:35.547Z,81.24
2023-04-04T02:27:39.661Z,81.25
2023-04-04T02:28:44.103Z,81.25
2023-04-04T02:29:48.176Z,81.27
2023-04-04T02:30:52.334Z,81.28
2023-04-04T02:31:56.385Z,81.27
2023-04-04T02:33:01.620Z,81.23
2023-04-04T02:34:05.227Z,81.25
2023-04-04T02:35:09.430Z,81.25
2023-04-04T02:36:13.675Z,81.26
2023-04-04T02:37:17.851Z,81.28
2023-04-04T02:38:22.108Z,81.35
2023-04-04T02:39:26.274Z,81.33
2023-04-04T02:40:30.425Z,81.36
2023-04-04T02:41:34.665Z,81.37
2023-04-04T02:42:38.743Z,81.36
2023-04-04T02:43:42.926Z,81.39
2023-04-04T02:44:47.054Z,81.43
2023-04-04T02:45:51.230Z,81.41
2023-04-04T02:46:55.420Z,81.45
2023-04-04T02:47:59.647Z,81.51
2023-04-04T02:49:03.774Z,81.52
2023-04-04T02:50:07.945Z,81.55
2023-04-04T02:51:12.190Z,81.62
2023-04-04T02:52:16.321Z,81.62
2023-04-04T02:53:20.425Z,81.63
2023-04-04T02:54:24.637Z,81.64
2023-04-04T02:55:28.759Z,81.68
2023-04-04T02:56:32.948Z,81.69
2023-04-04T02:57:37.971Z,81.71
2023-04-04T02:58:42.772Z,81.78
2023-04-04T02:59:45.825Z,81.85
2023-04-04T03:00:49.881Z,81.89
2023-04-04T03:01:54.215Z,81.90
2023-04-04T03:02:58.573Z,81.89
2023-04-04T03:04:02.503Z,81.86
2023-04-04T03:05:06.596Z,81.82
2023-04-04T03:06:10.790Z,81.85
2023-04-04T03:07:14.986Z,81.79
2023-04-04T03:08:19.255Z,81.84
2023-04-04T03:09:23.358Z,81.90
2023-04-04T03:10:27.636Z,81.98
2023-04-04T03:11:31.747Z,82.02
2023-04-04T03:12:35.996Z,82.07
2023-04-04T03:13:40.104Z,82.11
2023-04-04T03:14:44.212Z,82.19
2023-04-04T03:15:48.409Z,82.27
2023-04-04T03:16:52.638Z,82.36
2023-04-04T03:17:56.540Z,82.44
2023-04-04T03:19:00.812Z,82.53
2023-04-04T03:20:04.895Z,82.59
2023-04-04T03:21:09.107Z,82.69
2023-04-04T03:22:13.238Z,82.81
2023-04-04T03:23:17.452Z,82.91
2023-04-04T03:24:21.754Z,83.02
2023-04-04T03:25:25.874Z,83.11
2023-04-04T03:26:29.897Z,83.17
2023-04-04T03:27:33.976Z,83.23
2023-04-04T03:28:38.134Z,83.29
2023-04-04T03:29:42.479Z,83.27
2023-04-04T03:30:46.599Z,83.23
2023-04-04T03:31:50.712Z,83.21
2023-04-04T03:32:54.876Z,83.19
2023-04-04T03:33:59.046Z,83.24
2023-04-04T03:35:03.240Z,83.20
2023-04-04T03:36:07.384Z,83.24
2023-04-04T03:37:11.539Z,83.27
2023-04-04T03:38:15.715Z,83.30
2023-04-04T03:39:19.862Z,83.35
2023-04-04T03:40:23.838Z,83.38
2023-04-04T03:41:28.181Z,83.41
2023-04-04T03:42:32.226Z,83.38
2023-04-04T03:43:36.311Z,83.53
2023-04-04T03:44:40.385Z,83.47
2023-04-04T03:45:44.635Z,83.53
2023-04-04T03:46:48.948Z,83.53
2023-04-04T03:47:53.009Z,83.54
2023-04-04T03:48:57.137Z,83.56
2023-04-04T03:50:01.316Z,83.54
2023-04-04T03:51:05.393Z,83.50
2023-04-04T03:52:09.636Z,83.48
2023-04-04T03:53:13.777Z,83.45
2023-04-04T03:54:17.929Z,83.41
2023-04-04T03:55:22.185Z,83.38
2023-04-04T03:56:26.262Z,83.33
2023-04-04T03:57:30.477Z,83.27
2023-04-04T03:58:34.655Z,83.23
2023-04-04T03:59:38.761Z,83.19
2023-04-04T04:00:42.890Z,83.17
2023-04-04T04:01:47.094Z,83.16
2023-04-04T04:02:51.352Z,83.16
2023-04-04T04:03:55.431Z,83.13
2023-04-04T04:04:59.622Z,83.14
2023-04-04T04:06:03.716Z,83.12
2023-04-04T04:07:07.915Z,83.11
2023-04-04T04:08:11.949Z,83.09
2023-04-04T04:09:16.106Z,83.05
2023-04-04T04:10:20.248Z,83.03
2023-04-04T04:11:24.389Z,83.00
2023-04-04T04:12:28.548Z,82.95
2023-04-04T04:13:32.713Z,82.95
2023-04-04T04:14:36.894Z,82.92
2023-04-04T04:15:41.028Z,82.86
2023-04-04T04:16:45.230Z,82.84
2023-04-04T04:17:49.497Z,82.77
2023-04-04T04:18:53.480Z,82.71
2023-04-04T04:19:57.760Z,82.68
2023-04-04T04:21:01.900Z,82.60
2023-04-04T04:22:06.082Z,82.56
2023-04-04T04:23:10.221Z,82.54
2023-04-04T04:24:14.284Z,82.52
2023-04-04T04:25:18.449Z,82.53
2023-04-04T04:26:22.683Z,82.54
2023-04-04T04:27:26.745Z,82.56
2023-04-04T04:28:33.669Z,82.56
2023-04-04T04:29:35.036Z,82.53
2023-04-04T04:30:39.359Z,82.51
2023-04-04T04:31:43.358Z,82.50
2023-04-04T04:32:47.518Z,82.50
2023-04-04T04:33:51.543Z,82.50
2023-04-04T04:34:55.703Z,82.52
2023-04-04T04:36:01.661Z,82.52
2023-04-04T04:37:04.083Z,82.54
2023-04-04T04:38:11.230Z,82.57
2023-04-04T04:39:14.355Z,82.58
2023-04-04T04:40:18.548Z,82.59
2023-04-04T04:41:22.711Z,82.60
2023-04-04T04:42:26.890Z,82.59
2023-04-04T04:43:30.962Z,82.58
2023-04-04T04:44:35.190Z,82.56
2023-04-04T04:45:39.292Z,82.56
2023-04-04T04:46:43.632Z,82.54
2023-04-04T04:47:47.526Z,82.51
2023-04-04T04:48:51.873Z,82.54
2023-04-04T04:49:55.879Z,82.37
2023-04-04T04:51:00.038Z,82.31
2023-04-04T04:52:04.127Z,82.28
2023-04-04T04:53:08.268Z,82.25
2023-04-04T04:54:12.447Z,82.12
2023-04-04T04:55:16.620Z,82.19
2023-04-04T04:56:20.747Z,82.19
2023-04-04T04:57:24.868Z,82.20
2023-04-04T04:58:28.941Z,82.24
2023-04-04T04:59:33.074Z,82.29
2023-04-04T05:00:37.574Z,82.48
2023-04-04T05:01:41.399Z,82.40
2023-04-04T05:02:45.693Z,82.45
2023-04-04T05:03:51.980Z,82.50
2023-04-04T05:04:53.847Z,82.50
2023-04-04T05:05:57.968Z,82.46
2023-04-04T05:07:02.222Z,82.51
2023-04-04T05:08:06.349Z,82.48
2023-04-04T05:09:10.552Z,82.49
2023-04-04T05:10:14.748Z,82.44
2023-04-04T05:11:18.866Z,82.41
2023-04-04T05:12:23.042Z,82.41
2023-04-04T05:13:27.173Z,82.40
2023-04-04T05:14:31.430Z,82.38
2023-04-04T05:15:35.490Z,82.37
2023-04-04T05:16:39.565Z,82.34
2023-04-04T05:17:46.708Z,82.32
2023-04-04T05:18:49.899Z,82.31
2023-04-04T05:19:54.156Z,82.30
2023-04-04T05:20:58.227Z,82.29
2023-04-04T05:22:02.254Z,82.30
2023-04-04T05:23:06.426Z,82.29
2023-04-04T05:24:10.617Z,82.31
2023-04-04T05:25:14.664Z,82.35
2023-04-04T05:26:18.788Z,82.41
2023-04-04T05:27:23.132Z,82.45
2023-04-04T05:28:27.248Z,82.55
2023-04-04T05:29:31.411Z,82.53
2023-04-04T05:30:35.522Z,82.56
2023-04-04T05:31:39.705Z,82.60
2023-04-04T05:32:43.924Z,82.63
2023-04-04T05:33:47.923Z,82.68
2023-04-04T05:34:52.178Z,82.75
2023-04-04T05:35:56.362Z,82.81
2023-04-04T05:37:00.378Z,82.90
2023-04-04T05:38:04.497Z,82.96
2023-04-04T05:39:08.667Z,83.08
2023-04-04T05:40:12.817Z,83.17
2023-04-04T05:41:17.052Z,83.25
2023-04-04T05:42:21.114Z,83.30
2023-04-04T05:43:25.341Z,83.36
2023-04-04T05:44:29.466Z,83.36
2023-04-04T05:45:33.616Z,83.26
2023-04-04T05:46:37.733Z,83.40
2023-04-04T05:47:41.869Z,83.45
2023-04-04T05:48:45.965Z,83.48
2023-04-04T05:49:50.114Z,83.52
2023-04-04T05:50:54.356Z,83.57
2023-04-04T05:51:58.343Z,83.63
2023-04-04T05:53:02.463Z,83.70
2023-04-04T05:54:06.746Z,83.78
2023-04-04T05:55:10.840Z,83.87
2023-04-04T05:56:15.115Z,83.93
2023-04-04T05:57:19.211Z,83.97
2023-04-04T05:58:23.240Z,83.96
2023-04-04T05:59:27.548Z,84.04
2023-04-04T06:00:31.674Z,84.08
2023-04-04T06:01:35.714Z,84.13
2023-04-04T06:02:40.128Z,84.17
2023-04-04T06:03:47.247Z,84.17
2023-04-04T06:04:50.405Z,84.16
2023-04-04T06:05:54.563Z,84.11
2023-04-04T06:06:58.580Z,84.03
2023-04-04T06:08:02.748Z,83.96
2023-04-04T06:09:08.772Z,83.86
2023-04-04T06:10:11.108Z,83.81
2023-04-04T06:11:15.318Z,83.75
2023-04-04T06:12:19.557Z,83.72
2023-04-04T06:13:23.764Z,83.72
2023-04-04T06:14:27.963Z,83.71
2023-04-04T06:15:32.171Z,83.74
2023-04-04T06:16:36.271Z,83.75
2023-04-04T06:17:40.467Z,83.79
2023-04-04T06:18:44.484Z,83.81
2023-04-04T06:19:48.688Z,83.72
2023-04-04T06:20:52.865Z,83.73
2023-04-04T06:21:56.951Z,83.60
2023-04-04T06:23:01.206Z,83.53
2023-04-04T06:24:05.230Z,83.51
2023-04-04T06:25:09.459Z,83.42
2023-04-04T06:26:13.705Z,83.41
2023-04-04T06:27:17.918Z,83.36
2023-04-04T06:28:22.096Z,83.24
2023-04-04T06:29:26.246Z,83.20
2023-04-04T06:30:30.498Z,83.14
2023-04-04T06:31:34.671Z,83.08
2023-04-04T06:32:39.034Z,83.06
2023-04-04T06:33:42.975Z,82.97
2023-04-04T06:34:47.217Z,82.97
2023-04-04T06:35:51.484Z,82.88
2023-04-04T06:36:55.495Z,82.79
2023-04-04T06:37:59.827Z,82.75
2023-04-04T06:39:03.949Z,82.73
2023-04-04T06:40:08.100Z,82.66
2023-04-04T06:41:12.373Z,82.60
2023-04-04T06:42:16.617Z,82.56
2023-04-04T06:43:20.839Z,82.51
2023-04-04T06:44:25.018Z,82.43
2023-04-04T06:45:29.286Z,82.26
2023-04-04T06:46:33.486Z,82.23
2023-04-04T06:47:37.607Z,82.20
2023-04-04T06:48:41.834Z,82.19
2023-04-04T06:49:45.918Z,82.23
2023-04-04T06:50:50.176Z,82.29
2023-04-04T06:51:54.378Z,82.36
2023-04-04T06:52:58.561Z,82.38
2023-04-04T06:54:02.675Z,82.37
2023-04-04T06:55:06.953Z,82.30
2023-04-04T06:56:11.008Z,82.17
2023-04-04T06:57:15.292Z,81.93
2023-04-04T06:58:19.568Z,81.46
2023-04-04T06:59:23.748Z,81.00
2023-04-04T07:00:27.903Z,80.75
2023-04-04T07:01:32.155Z,80.56
2023-04-04T07:02:36.366Z,80.48
2023-04-04T07:03:40.448Z,80.42
2023-04-04T07:04:44.633Z,80.43
2023-04-04T07:05:48.860Z,80.34
2023-04-04T07:06:52.999Z,80.36
2023-04-04T07:07:57.272Z,80.39
2023-04-04T07:09:01.379Z,80.43
2023-04-04T07:10:05.600Z,80.48
2023-04-04T07:11:09.735Z,80.46
2023-04-04T07:12:13.896Z,80.60
2023-04-04T07:13:18.080Z,80.70
2023-04-04T07:14:22.221Z,80.80
2023-04-04T07:15:26.384Z,80.86
2023-04-04T07:16:30.552Z,80.95
2023-04-04T07:17:34.740Z,81.04
2023-04-04T07:18:38.935Z,81.10
2023-04-04T07:19:43.193Z,81.16
2023-04-04T07:20:47.294Z,81.26
2023-04-04T07:21:51.509Z,81.28
2023-04-04T07:22:55.673Z,81.38
2023-04-04T07:23:59.930Z,81.41
2023-04-04T07:25:04.013Z,81.50
2023-04-04T07:26:08.368Z,81.64
2023-04-04T07:27:12.527Z,81.72
2023-04-04T07:28:16.663Z,81.76
2023-04-04T07:29:20.740Z,81.93
2023-04-04T07:30:25.014Z,82.01
2023-04-04T07:31:29.242Z,82.06
2023-04-04T07:32:33.359Z,82.06
2023-04-04T07:33:37.503Z,82.04
2023-04-04T07:34:41.687Z,82.01
2023-04-04T07:35:46.000Z,81.97
2023-04-04T07:36:50.110Z,81.94
2023-04-04T07:37:54.320Z,81.95
2023-04-04T07:38:58.532Z,81.93
2023-04-04T07:40:02.773Z,81.92
2023-04-04T07:41:06.891Z,81.91
2023-04-04T07:42:11.120Z,81.87
2023-04-04T07:43:15.328Z,81.89
2023-04-04T07:44:19.443Z,81.84
2023-04-04T07:45:23.741Z,81.88
2023-04-04T07:46:28.015Z,81.90
2023-04-04T07:47:32.064Z,81.92
2023-04-04T07:48:36.313Z,81.93
2023-04-04T07:49:40.486Z,81.97
2023-04-04T07:50:44.615Z,81.96
2023-04-04T07:51:48.865Z,81.94
2023-04-04T07:52:52.942Z,81.92
2023-04-04T07:53:57.272Z,81.85
2023-04-04T07:55:01.398Z,81.76
2023-04-04T07:56:05.565Z,81.73
2023-04-04T07:57:10.128Z,81.74
2023-04-04T07:58:13.919Z,81.71
2023-04-04T07:59:18.191Z,81.64
2023-04-04T08:00:22.344Z,81.62
2023-04-04T08:01:26.500Z,81.66
2023-04-04T08:02:30.755Z,81.69
2023-04-04T08:03:35.137Z,81.65
2023-04-04T08:04:39.097Z,81.62
2023-04-04T08:05:43.296Z,81.63
2023-04-04T08:06:47.519Z,81.48
2023-04-04T08:07:51.735Z,81.25
2023-04-04T08:08:55.813Z,80.89
2023-04-04T08:10:00.164Z,80.73
2023-04-04T08:11:04.334Z,80.52
2023-04-04T08:12:08.367Z,80.25
2023-04-04T08:13:12.683Z,79.97
2023-04-04T08:14:16.870Z,79.88
2023-04-04T08:15:21.061Z,79.83
2023-04-04T08:16:25.442Z,79.69
2023-04-04T08:17:29.460Z,79.62
2023-04-04T08:18:33.630Z,79.63
2023-04-04T08:19:37.833Z,79.66
2023-04-04T08:20:43.206Z,79.76
2023-04-04T08:21:46.927Z,79.80
2023-04-04T08:22:51.099Z,79.69
2023-04-04T08:23:55.372Z,79.50
2023-04-04T08:24:59.450Z,79.53
2023-04-04T08:26:03.714Z,79.39
2023-04-04T08:27:07.953Z,79.37
2023-04-04T08:28:12.224Z,79.36
2023-04-04T08:29:16.376Z,79.33
2023-04-04T08:30:20.591Z,79.32
2023-04-04T08:31:24.949Z,79.26
2023-04-04T08:32:29.126Z,79.27
2023-04-04T08:33:44.612Z,79.17
2023-04-04T08:34:37.562Z,79.31
2023-04-04T08:35:41.739Z,79.18
2023-04-04T08:36:45.887Z,79.08
2023-04-04T08:37:50.174Z,79.12
2023-04-04T08:38:54.233Z,79.24
2023-04-04T08:39:58.539Z,79.37
2023-04-04T08:41:02.707Z,79.44
2023-04-04T08:42:06.945Z,79.36
2023-04-04T08:43:11.300Z,79.35
2023-04-04T08:44:15.315Z,79.41
2023-04-04T08:45:19.615Z,79.32
2023-04-04T08:46:23.811Z,79.24
2023-04-04T08:47:27.949Z,79.01
2023-04-04T08:48:32.245Z,78.55
2023-04-04T08:49:36.298Z,78.29
2023-04-04T08:50:40.926Z,78.08
2023-04-04T08:51:44.928Z,78.11
2023-04-04T08:52:49.116Z,78.19
2023-04-04T08:53:53.294Z,78.20
2023-04-04T08:54:57.481Z,78.32
2023-04-04T08:56:01.593Z,78.53
2023-04-04T08:57:05.787Z,78.53
2023-04-04T08:58:24.075Z,78.27
2023-04-04T08:59:27.103Z,77.59
2023-04-04T09:00:31.220Z,77.00
2023-04-04T09:01:35.457Z,76.75
2023-04-04T09:02:39.640Z,76.41
2023-04-04T09:03:43.776Z,76.08
2023-04-04T09:04:58.263Z,75.76
2023-04-04T09:05:52.248Z,75.29
2023-04-04T09:06:59.548Z,74.72
2023-04-04T09:08:02.778Z,74.78
2023-04-04T09:09:06.918Z,74.48
2023-04-04T09:10:11.143Z,74.51
2023-04-04T09:11:15.370Z,73.82
2023-04-04T09:12:19.669Z,73.46
2023-04-04T09:13:23.824Z,73.54
2023-04-04T09:14:28.083Z,73.87
2023-04-04T09:15:32.280Z,73.83
2023-04-04T09:16:36.545Z,73.48
2023-04-04T09:17:40.651Z,72.89
2023-04-04T09:18:44.953Z,72.25
2023-04-04T09:19:49.081Z,72.04
2023-04-04T09:20:53.504Z,71.96
2023-04-04T09:21:57.511Z,72.01
2023-04-04T09:23:01.747Z,72.07
2023-04-04T09:24:05.975Z,72.01
2023-04-04T09:25:10.204Z,72.08
2023-04-04T09:26:14.825Z,72.04
2023-04-04T09:27:18.695Z,72.04
2023-04-04T09:28:22.883Z,71.67
2023-04-04T09:29:27.217Z,71.23
2023-04-04T09:30:31.413Z,69.58
2023-04-04T09:31:35.666Z,67.87
2023-04-04T09:32:39.792Z,66.80
2023-04-04T09:33:44.009Z,66.37
2023-04-04T09:34:48.260Z,66.24
2023-04-04T09:35:52.591Z,65.78
2023-04-04T09:36:56.674Z,65.84
2023-04-04T09:38:00.982Z,66.13
2023-04-04T09:39:05.173Z,66.13
2023-04-04T09:40:09.418Z,66.19
2023-04-04T09:41:13.755Z,65.89
2023-04-04T09:42:17.865Z,65.92
2023-04-04T09:43:22.128Z,66.33
2023-04-04T09:44:26.325Z,66.16
2023-04-04T09:45:32.345Z,66.37
2023-04-04T09:46:34.888Z,66.01
2023-04-04T09:47:39.060Z,66.43
2023-04-04T09:48:43.201Z,66.04
2023-04-04T09:49:47.515Z,66.01
2023-04-04T09:50:54.772Z,65.43
2023-04-04T09:51:58.095Z,65.45
2023-04-04T09:53:02.237Z,65.29
2023-04-04T09:54:09.022Z,64.91
2023-04-04T09:55:16.844Z,64.81
2023-04-04T09:56:19.661Z,64.90
2023-04-04T09:57:23.853Z,65.24
2023-04-04T09:58:28.374Z,65.81
2023-04-04T09:59:32.334Z,66.09
2023-04-04T10:00:36.577Z,65.90
2023-04-04T10:01:40.773Z,65.92
2023-04-04T10:02:45.058Z,65.92
2023-04-04T10:03:49.272Z,66.24
2023-04-04T10:05:03.393Z,65.82
2023-04-04T10:05:57.637Z,66.16
2023-04-04T10:07:01.885Z,66.15
2023-04-04T10:08:06.200Z,66.00
2023-04-04T10:09:10.222Z,66.20
2023-04-04T10:10:20.498Z,65.95
2023-04-04T10:11:24.174Z,65.87
2023-04-04T10:12:27.496Z,65.76
2023-04-04T10:13:31.735Z,66.15
2023-04-04T10:14:35.949Z,66.20
2023-04-04T10:15:40.321Z,66.00
2023-04-04T10:16:44.513Z,65.50
2023-04-04T10:17:48.816Z,65.57
2023-04-04T10:18:53.057Z,65.95
2023-04-04T10:19:57.222Z,66.25
2023-04-04T10:21:14.492Z,66.29
2023-04-04T10:22:05.698Z,66.60
2023-04-04T10:23:09.999Z,66.61
2023-04-04T10:24:14.212Z,66.75
2023-04-04T10:25:18.554Z,66.81
2023-04-04T10:26:22.712Z,66.54
2023-04-04T10:27:26.897Z,66.60
2023-04-04T10:28:31.313Z,66.68
2023-04-04T10:29:35.523Z,66.97
2023-04-04T10:30:39.925Z,67.20
2023-04-04T10:31:43.954Z,66.63
2023-04-04T10:32:48.288Z,66.28
2023-04-04T10:33:52.462Z,66.64
2023-04-04T10:34:56.686Z,66.62
2023-04-04T10:36:00.939Z,66.58
2023-04-04T10:37:13.421Z,66.33
2023-04-04T10:38:15.378Z,66.31
2023-04-04T10:39:19.612Z,66.08
2023-04-04T10:40:23.866Z,66.19
2023-04-04T10:41:28.001Z,66.42
2023-04-04T10:42:32.215Z,66.54
2023-04-04T10:43:36.450Z,66.50
2023-04-04T10:44:40.690Z,66.35
2023-04-04T10:45:44.914Z,66.47
2023-04-04T10:46:49.204Z,66.05
2023-04-04T10:47:53.374Z,65.43
2023-04-04T10:48:57.620Z,65.34
2023-04-04T10:50:01.910Z,64.31
2023-04-04T10:51:06.081Z,64.11
2023-04-04T10:52:10.303Z,64.27
2023-04-04T10:53:14.641Z,64.58
2023-04-04T10:54:18.801Z,64.92
2023-04-04T10:55:23.062Z,64.96
2023-04-04T10:56:28.281Z,64.70
2023-04-04T10:57:31.969Z,64.75
2023-04-04T10:58:36.321Z,64.78
2023-04-04T10:59:40.416Z,64.77
2023-04-04T11:00:44.744Z,64.92
2023-04-04T11:01:49.004Z,65.09
2023-04-04T11:02:53.372Z,65.41
2023-04-04T11:03:57.499Z,64.94
2023-04-04T11:05:01.698Z,65.11
2023-04-04T11:06:05.907Z,65.32
2023-04-04T11:07:10.093Z,65.65
2023-04-04T11:08:14.534Z,65.66
2023-04-04T11:09:18.675Z,65.45
2023-04-04T11:10:22.832Z,65.20
2023-04-04T11:11:27.117Z,65.26
2023-04-04T11:12:31.358Z,65.52
2023-04-04T11:13:35.482Z,65.98
2023-04-04T11:14:39.768Z,65.69
2023-04-04T11:15:43.969Z,64.83
2023-04-04T11:16:48.232Z,63.85
2023-04-04T11:17:52.549Z,63.02
2023-04-04T11:18:56.801Z,63.00
2023-04-04T11:20:00.983Z,63.13
2023-04-04T11:21:05.364Z,63.00
2023-04-04T11:22:09.455Z,62.89
2023-04-04T11:23:13.778Z,63.28
2023-04-04T11:24:17.920Z,63.93
2023-04-04T11:25:22.147Z,64.41
2023-04-04T11:26:26.495Z,64.72
2023-04-04T11:27:30.728Z,64.66
2023-04-04T11:28:34.880Z,64.46
2023-04-04T11:29:39.137Z,64.68
2023-04-04T11:30:43.240Z,64.35
2023-04-04T11:31:47.546Z,63.95
2023-04-04T11:33:03.820Z,64.11
2023-04-04T11:33:56.050Z,64.27
2023-04-04T11:35:00.247Z,64.22
2023-04-04T11:36:06.249Z,63.78
2023-04-04T11:37:08.646Z,63.53
2023-04-04T11:38:12.957Z,63.19
2023-04-04T11:39:17.156Z,63.43
2023-04-04T11:40:21.486Z,63.75
2023-04-04T11:41:25.692Z,64.01
2023-04-04T11:42:29.960Z,64.19
2023-04-04T11:43:34.133Z,64.27
2023-04-04T11:44:38.362Z,63.86
2023-04-04T11:45:42.807Z,63.66
2023-04-04T11:46:48.097Z,63.16
2023-04-04T11:47:50.971Z,62.83
2023-04-04T11:48:55.301Z,62.65
2023-04-04T11:49:59.477Z,62.80
2023-04-04T11:51:03.695Z,63.12
2023-04-04T11:52:07.908Z,63.54
2023-04-04T11:53:12.052Z,64.01
2023-04-04T11:54:22.543Z,64.64
2023-04-04T11:55:25.426Z,64.76
2023-04-04T11:56:29.562Z,64.74
2023-04-04T11:57:33.732Z,65.00
2023-04-04T11:58:38.072Z,65.27
2023-04-04T11:59:42.356Z,64.79
2023-04-04T12:00:46.518Z,64.08
2023-04-04T12:01:50.708Z,63.67
2023-04-04T12:02:55.004Z,63.26
2023-04-04T12:04:05.221Z,63.03
2023-04-04T12:05:08.076Z,63.30
2023-04-04T12:06:12.269Z,63.64
2023-04-04T12:07:16.471Z,64.12
2023-04-04T12:08:20.748Z,64.54
2023-04-04T12:09:27.833Z,64.98
2023-04-04T12:10:31.158Z,64.72
2023-04-04T12:11:35.620Z,64.24
2023-04-04T12:12:39.742Z,63.83
2023-04-04T12:13:43.911Z,63.71
2023-04-04T12:14:48.092Z,63.91
2023-04-04T12:15:52.336Z,64.22
2023-04-04T12:16:56.572Z,64.62
2023-04-04T12:18:00.905Z,65.01
2023-04-04T12:19:05.131Z,65.16
2023-04-04T12:20:09.341Z,65.45
2023-04-04T12:21:13.547Z,65.60
2023-04-04T12:22:17.727Z,65.72
2023-04-04T12:23:21.989Z,66.03
2023-04-04T12:24:26.210Z,65.68
2023-04-04T12:25:30.471Z,64.97
2023-04-04T12:26:34.834Z,64.36
2023-04-04T12:27:39.083Z,64.00
2023-04-04T12:28:43.287Z,63.09
2023-04-04T12:29:47.534Z,62.65
2023-04-04T12:30:51.866Z,62.50
2023-04-04T12:31:56.191Z,62.05
2023-04-04T12:33:00.350Z,62.16
2023-04-04T12:34:04.638Z,61.47
2023-04-04T12:35:08.844Z,61.14
2023-04-04T12:36:13.103Z,60.79
2023-04-04T12:37:17.370Z,60.92
2023-04-04T12:38:21.633Z,60.41
2023-04-04T12:39:25.976Z,60.27
2023-04-04T12:40:30.269Z,60.71
2023-04-04T12:41:34.564Z,60.46
2023-04-04T12:42:44.815Z,60.15
2023-04-04T12:43:47.662Z,59.69
2023-04-04T12:44:51.842Z,59.75
2023-04-04T12:45:56.028Z,59.91
2023-04-04T12:47:00.585Z,60.23
2023-04-04T12:48:04.469Z,60.27
2023-04-04T12:49:08.700Z,60.11
2023-04-04T12:50:12.963Z,60.29
2023-04-04T12:51:17.173Z,60.87
2023-04-04T12:52:21.427Z,61.14
2023-04-04T12:53:29.009Z,61.41
2023-04-04T12:54:33.060Z,60.27
2023-04-04T12:55:36.393Z,60.02
2023-04-04T12:56:40.661Z,59.38
2023-04-04T12:57:44.926Z,59.23
2023-04-04T12:58:49.252Z,59.30
2023-04-04T12:59:53.380Z,59.38
2023-04-04T13:00:57.618Z,58.92
2023-04-04T13:02:01.870Z,58.93
2023-04-04T13:03:06.136Z,59.38
2023-04-04T13:04:10.394Z,59.79
2023-04-04T13:05:14.451Z,60.05
2023-04-04T13:06:18.786Z,59.94
2023-04-04T13:07:23.006Z,60.29
2023-04-04T13:08:27.418Z,60.38
2023-04-04T13:09:31.597Z,60.56
2023-04-04T13:10:35.845Z,60.97
2023-04-04T13:11:40.035Z,61.57
2023-04-04T13:12:44.238Z,61.71
2023-04-04T13:13:48.585Z,62.01
2023-04-04T13:14:52.749Z,61.38
2023-04-04T13:15:57.061Z,60.23
2023-04-04T13:17:01.405Z,59.82
2023-04-04T13:18:05.546Z,60.12
2023-04-04T13:19:09.767Z,60.14
2023-04-04T13:20:14.024Z,59.95
2023-04-04T13:21:18.249Z,60.13
2023-04-04T13:22:22.589Z,60.25
2023-04-04T13:23:26.768Z,60.19
2023-04-04T13:24:31.040Z,60.07
2023-04-04T13:25:35.203Z,59.67
2023-04-04T13:26:39.379Z,59.22
2023-04-04T13:27:43.674Z,59.63
2023-04-04T13:28:47.923Z,60.23
2023-04-04T13:29:52.133Z,59.74
2023-04-04T13:30:56.428Z,59.82
2023-04-04T13:32:06.632Z,60.09
2023-04-04T13:33:09.462Z,60.48
2023-04-04T13:34:13.701Z,60.70
2023-04-04T13:35:17.865Z,60.48
2023-04-04T13:36:22.149Z,60.06
2023-04-04T13:37:26.437Z,59.92
2023-04-04T13:38:30.772Z,59.94
2023-04-04T13:39:34.958Z,59.88
2023-04-04T13:40:42.271Z,59.63
2023-04-04T13:41:45.414Z,59.45
2023-04-04T13:42:49.693Z,59.93
2023-04-04T13:43:53.925Z,60.00
2023-04-04T13:44:58.149Z,60.40
2023-04-04T13:46:02.528Z,60.77
2023-04-04T13:47:06.727Z,60.97